Orbital elements of BREEZE-M DEB
| Launched | 13 March 2008 |
| Flight ended | – |
| Launch site | Tyuratam Missile and Space Center, Kazakhstan (Also known as Baikonur Cosmodrome) |
| Owner | Commonwealth of Independent States (former USSR) |
| NORAD ID | 38601 |
| Date fetched |
Epoch osculation |
Inc. [°] |
Ecc. | RA asc node [hr] |
Arg Peri. [°] |
Mean anom [°] |
Mean motion [rev/day] |
Abs. mag |
| Date fetched |
Epoch osculation |
Inc. [°] |
Ecc. | RA asc node [hr] |
Arg Peri. [°] |
Mean anom [°] |
Mean motion [rev/day] |
Abs. mag |
| 2026 May 08 17:57 | 2026 May 04 05:55:17 | 48.0200 | 0.52117 | 5.1355 | 140.0504 | 273.2361 | 5.32045 | – |
| 2026 May 07 17:58 | 2026 May 04 05:55:17 | 48.0200 | 0.52117 | 5.1355 | 140.0504 | 273.2361 | 5.32045 | – |
| 2026 May 06 17:57 | 2026 May 04 05:55:17 | 48.0200 | 0.52117 | 5.1355 | 140.0504 | 273.2361 | 5.32045 | – |
| 2026 May 05 17:57 | 2026 May 04 05:55:17 | 48.0200 | 0.52117 | 5.1355 | 140.0504 | 273.2361 | 5.32045 | – |
| 2026 May 04 17:57 | 2026 Apr 30 07:13:39 | 48.0190 | 0.52140 | 5.3545 | 137.0241 | 273.2361 | 5.32045 | – |
| 2026 May 03 17:57 | 2026 Apr 30 07:13:39 | 48.0190 | 0.52140 | 5.3545 | 137.0241 | 273.2361 | 5.32045 | – |
| 2026 May 02 17:57 | 2026 Apr 30 07:13:39 | 48.0190 | 0.52140 | 5.3545 | 137.0241 | 273.2361 | 5.32045 | – |
| 2026 May 01 17:56 | 2026 Apr 30 07:13:39 | 48.0190 | 0.52140 | 5.3545 | 137.0241 | 273.2361 | 5.32045 | – |
| 2026 Apr 30 17:56 | 2026 Apr 30 07:13:39 | 48.0190 | 0.52140 | 5.3545 | 137.0241 | 273.2361 | 5.32045 | – |
| 2026 Apr 29 17:57 | 2026 Apr 24 06:48:54 | 48.0167 | 0.52170 | 5.6880 | 132.4185 | 273.2361 | 5.32045 | – |
| 2026 Apr 28 17:56 | 2026 Apr 24 06:48:54 | 48.0167 | 0.52170 | 5.6880 | 132.4185 | 273.2361 | 5.32045 | – |
| 2026 Apr 27 17:58 | 2026 Apr 24 06:48:54 | 48.0167 | 0.52170 | 5.6880 | 132.4185 | 273.2361 | 5.32045 | – |
| 2026 Apr 26 17:58 | 2026 Apr 24 06:48:54 | 48.0167 | 0.52170 | 5.6880 | 132.4185 | 273.2361 | 5.32045 | – |
| 2026 Apr 25 17:58 | 2026 Apr 24 06:48:54 | 48.0167 | 0.52170 | 5.6880 | 132.4185 | 273.2361 | 5.32045 | – |
| 2026 Apr 24 17:59 | 2026 Apr 24 06:48:54 | 48.0167 | 0.52170 | 5.6880 | 132.4185 | 273.2361 | 5.32045 | – |
| 2026 Apr 23 17:57 | 2026 Apr 19 09:23:08 | 48.0136 | 0.52193 | 5.9591 | 128.6696 | 273.2361 | 5.32045 | – |
| 2026 Apr 22 17:57 | 2026 Apr 19 09:23:08 | 48.0136 | 0.52193 | 5.9591 | 128.6696 | 273.2361 | 5.32045 | – |
| 2026 Apr 21 17:57 | 2026 Apr 19 09:23:08 | 48.0136 | 0.52193 | 5.9591 | 128.6696 | 273.2361 | 5.32045 | – |
| 2026 Apr 20 17:57 | 2026 Apr 19 09:23:08 | 48.0136 | 0.52193 | 5.9591 | 128.6696 | 273.2361 | 5.32045 | – |
| 2026 Apr 19 17:58 | 2026 Apr 19 09:23:08 | 48.0136 | 0.52193 | 5.9591 | 128.6696 | 273.2361 | 5.32045 | – |
| 2026 Apr 18 17:56 | 2026 Apr 13 04:13:43 | 48.0104 | 0.52218 | 6.3030 | 123.9149 | 273.2361 | 5.32045 | – |
| 2026 Apr 16 17:57 | 2026 Apr 13 04:13:43 | 48.0104 | 0.52218 | 6.3030 | 123.9149 | 273.2361 | 5.32045 | – |
| 2026 Apr 14 17:57 | 2026 Apr 13 04:13:43 | 48.0104 | 0.52218 | 6.3030 | 123.9149 | 273.2361 | 5.32045 | – |
| 2026 Apr 13 17:57 | 2026 Apr 13 04:13:43 | 48.0104 | 0.52218 | 6.3030 | 123.9149 | 273.2361 | 5.32045 | – |
| 2026 Apr 12 17:57 | 2026 Apr 08 11:09:25 | 48.0089 | 0.52240 | 6.5634 | 120.3121 | 273.2361 | 5.32045 | – |
| 2026 Apr 11 17:57 | 2026 Apr 08 11:09:25 | 48.0089 | 0.52240 | 6.5634 | 120.3121 | 273.2361 | 5.32045 | – |